createdAt,value
2018-10-06T00:01:50.769Z,19.77
2018-10-06T00:04:19.985Z,18.83
2018-10-06T00:06:49.197Z,21.67
2018-10-06T00:09:18.375Z,31.10
2018-10-06T00:11:47.638Z,26.20
2018-10-06T00:14:17.106Z,23.07
2018-10-06T00:16:46.491Z,21.00
2018-10-06T00:19:15.721Z,22.87
2018-10-06T00:21:44.966Z,25.17
2018-10-06T00:24:14.161Z,22.23
2018-10-06T00:26:43.380Z,26.27
2018-10-06T00:29:12.701Z,24.30
2018-10-06T00:31:41.868Z,23.90
2018-10-06T00:34:11.070Z,32.77
2018-10-06T00:36:40.570Z,18.43
2018-10-06T00:39:09.955Z,18.07
2018-10-06T00:41:39.189Z,21.63
2018-10-06T00:44:08.493Z,21.47
2018-10-06T00:46:37.758Z,23.13
2018-10-06T00:49:07.821Z,23.10
2018-10-06T00:51:37.023Z,37.50
2018-10-06T00:54:06.731Z,21.30
2018-10-06T00:56:36.017Z,29.00
2018-10-06T00:59:05.257Z,19.10
2018-10-06T01:01:34.630Z,31.23
2018-10-06T01:04:03.940Z,22.93
2018-10-06T01:06:33.141Z,22.10
2018-10-06T01:09:02.309Z,22.13
2018-10-06T01:11:31.507Z,20.47
2018-10-06T01:14:00.681Z,23.70
2018-10-06T01:16:29.902Z,23.13
2018-10-06T01:18:59.105Z,20.87
2018-10-06T01:21:28.396Z,24.87
2018-10-06T01:23:58.084Z,32.57
2018-10-06T01:26:27.298Z,22.77
2018-10-06T01:28:56.605Z,22.50
2018-10-06T01:31:25.803Z,23.13
2018-10-06T01:33:55.005Z,27.13
2018-10-06T01:36:25.309Z,22.10
2018-10-06T01:38:54.516Z,21.80
2018-10-06T01:41:30.449Z,24.70
2018-10-06T01:44:00.425Z,26.60
2018-10-06T01:46:29.607Z,22.90
2018-10-06T01:48:58.837Z,22.83
2018-10-06T01:51:28.070Z,38.40
2018-10-06T01:53:57.280Z,22.90
2018-10-06T01:56:26.730Z,25.10
2018-10-06T01:58:55.892Z,25.93
2018-10-06T02:01:25.050Z,22.57
2018-10-06T02:03:54.299Z,23.07
2018-10-06T02:06:23.467Z,21.77
2018-10-06T02:08:52.733Z,23.40
2018-10-06T02:11:22.174Z,24.23
2018-10-06T02:13:51.372Z,25.93
2018-10-06T02:16:20.574Z,23.27
2018-10-06T02:18:49.789Z,24.13
2018-10-06T02:21:18.993Z,20.97
2018-10-06T02:23:48.200Z,27.57
2018-10-06T02:26:17.666Z,22.27
2018-10-06T02:28:47.005Z,23.53
2018-10-06T02:31:16.172Z,24.40
2018-10-06T02:33:46.694Z,22.40
2018-10-06T02:36:15.916Z,24.50
2018-10-06T02:38:45.095Z,27.67
2018-10-06T02:41:14.320Z,20.47
2018-10-06T02:43:43.512Z,23.70
2018-10-06T02:46:12.690Z,21.20
2018-10-06T02:48:41.930Z,23.47
2018-10-06T02:51:11.095Z,21.93
2018-10-06T02:53:40.286Z,21.60
2018-10-06T02:56:09.530Z,19.37
2018-10-06T02:58:38.968Z,19.63
2018-10-06T03:01:09.258Z,20.67
2018-10-06T03:03:38.519Z,20.67
2018-10-06T03:06:07.965Z,17.43
2018-10-06T03:08:37.197Z,22.90
2018-10-06T03:11:06.566Z,32.00
2018-10-06T03:13:35.816Z,26.47
2018-10-06T03:16:05.243Z,18.27
2018-10-06T03:18:34.949Z,28.43
2018-10-06T03:21:04.318Z,28.90
2018-10-06T03:23:33.558Z,21.00
2018-10-06T03:26:02.784Z,19.63
2018-10-06T03:28:31.956Z,23.30
2018-10-06T03:31:01.530Z,18.13
2018-10-06T03:33:30.753Z,24.90
2018-10-06T03:35:59.977Z,27.43
2018-10-06T03:38:29.230Z,20.57
2018-10-06T03:40:58.434Z,23.10
2018-10-06T03:43:28.301Z,25.47
2018-10-06T03:45:57.499Z,25.43
2018-10-06T03:48:26.654Z,24.83
2018-10-06T03:50:55.847Z,26.17
2018-10-06T03:53:25.280Z,32.40
2018-10-06T03:55:54.523Z,29.63
2018-10-06T03:58:23.835Z,19.30
2018-10-06T04:00:53.002Z,25.27
2018-10-06T04:03:22.293Z,27.03
2018-10-06T04:05:51.548Z,22.07
2018-10-06T04:08:20.738Z,27.77
2018-10-06T04:10:49.938Z,25.67
2018-10-06T04:13:19.127Z,25.33
2018-10-06T04:15:48.342Z,21.80
2018-10-06T04:18:17.564Z,21.17
2018-10-06T04:20:46.761Z,20.33
2018-10-06T04:23:15.963Z,22.10
2018-10-06T04:25:45.148Z,32.67
2018-10-06T04:28:14.628Z,20.80
2018-10-06T04:30:43.733Z,20.43
2018-10-06T04:33:12.981Z,32.50
2018-10-06T04:35:42.131Z,20.20
2018-10-06T04:38:11.337Z,25.63
2018-10-06T04:40:40.574Z,19.00
2018-10-06T04:43:09.835Z,21.27
2018-10-06T04:45:39.129Z,22.53
2018-10-06T04:48:08.401Z,35.77
2018-10-06T04:50:37.625Z,21.30
2018-10-06T04:53:07.076Z,20.17
2018-10-06T04:55:36.366Z,23.80
2018-10-06T04:58:08.697Z,22.33
2018-10-06T05:00:38.621Z,23.53
2018-10-06T05:03:08.112Z,27.20
2018-10-06T05:05:37.326Z,28.73
2018-10-06T05:08:06.805Z,25.57
2018-10-06T05:10:36.029Z,25.93
2018-10-06T05:13:05.240Z,21.23
2018-10-06T05:15:34.473Z,24.67
2018-10-06T05:18:03.910Z,26.00
2018-10-06T05:20:33.205Z,20.60
2018-10-06T05:23:02.421Z,29.93
2018-10-06T05:25:31.616Z,26.50
2018-10-06T05:28:00.806Z,22.53
2018-10-06T05:30:30.041Z,26.87
2018-10-06T05:32:59.377Z,21.43
2018-10-06T05:35:28.626Z,21.83
2018-10-06T05:37:57.847Z,30.53
2018-10-06T05:40:27.043Z,19.37
2018-10-06T05:42:56.311Z,35.30
2018-10-06T05:45:25.529Z,27.37
2018-10-06T05:47:54.717Z,29.80
2018-10-06T05:50:23.911Z,28.63
2018-10-06T05:52:53.398Z,33.33
2018-10-06T05:55:22.626Z,26.50
2018-10-06T05:57:51.939Z,32.50
2018-10-06T06:00:21.208Z,53.80
2018-10-06T06:02:50.468Z,49.07
2018-10-06T06:05:19.724Z,52.33
2018-10-06T06:07:48.938Z,48.57
2018-10-06T06:10:18.115Z,63.27
2018-10-06T06:12:47.335Z,50.77
2018-10-06T06:15:16.577Z,37.50
2018-10-06T06:17:45.785Z,35.07
2018-10-06T06:20:15.002Z,45.80
2018-10-06T06:22:44.278Z,43.80
2018-10-06T06:25:13.725Z,40.03
2018-10-06T06:27:43.305Z,40.77
2018-10-06T06:30:12.550Z,34.33
2018-10-06T06:32:41.826Z,37.17
2018-10-06T06:35:11.013Z,33.77
2018-10-06T06:37:40.315Z,31.07
2018-10-06T06:40:09.528Z,34.20
2018-10-06T06:42:38.809Z,36.57
2018-10-06T06:45:08.512Z,29.23
2018-10-06T06:47:37.766Z,30.77
2018-10-06T06:50:07.052Z,31.80
2018-10-06T06:52:36.295Z,46.03
2018-10-06T06:55:06.052Z,26.67
2018-10-06T06:57:35.480Z,31.23
2018-10-06T07:00:04.930Z,26.70
2018-10-06T07:02:34.196Z,28.70
2018-10-06T07:05:03.451Z,35.57
2018-10-06T07:07:32.644Z,22.10
2018-10-06T07:10:02.691Z,26.13
2018-10-06T07:12:38.539Z,26.80
2018-10-06T07:15:07.980Z,30.23
2018-10-06T07:17:37.191Z,25.93
2018-10-06T07:20:06.547Z,21.00
2018-10-06T07:22:35.825Z,24.97
2018-10-06T07:25:05.017Z,25.43
2018-10-06T07:27:34.369Z,27.90
2018-10-06T07:30:03.614Z,27.13
2018-10-06T07:32:32.934Z,25.90
2018-10-06T07:35:02.175Z,29.60
2018-10-06T07:37:31.741Z,28.43
2018-10-06T07:40:00.978Z,20.90
2018-10-06T07:42:30.320Z,33.97
2018-10-06T07:44:59.570Z,25.37
2018-10-06T07:47:28.764Z,32.00
2018-10-06T07:49:58.052Z,26.87
2018-10-06T07:52:27.363Z,23.43
2018-10-06T07:54:56.679Z,24.00
2018-10-06T07:57:26.009Z,22.63
2018-10-06T07:59:55.225Z,20.53
2018-10-06T08:02:25.074Z,24.27
2018-10-06T08:04:55.735Z,23.93
2018-10-06T08:07:25.131Z,25.90
2018-10-06T08:09:54.848Z,23.53
2018-10-06T08:12:24.802Z,18.47
2018-10-06T08:14:54.807Z,27.00
2018-10-06T08:17:24.336Z,18.67
2018-10-06T08:19:54.283Z,24.10
2018-10-06T08:22:50.072Z,22.13
2018-10-06T08:25:22.424Z,27.90
2018-10-06T08:27:51.708Z,20.07
2018-10-06T08:30:20.922Z,20.33
2018-10-06T08:32:50.233Z,20.17
2018-10-06T08:35:19.490Z,23.33
2018-10-06T08:37:48.785Z,19.77
2018-10-06T08:40:18.044Z,24.57
2018-10-06T08:42:47.467Z,21.33
2018-10-06T08:45:16.904Z,20.23
2018-10-06T08:47:46.194Z,18.67
2018-10-06T08:50:16.016Z,21.70
2018-10-06T08:52:45.537Z,20.80
2018-10-06T08:55:15.321Z,23.33
2018-10-06T08:57:44.681Z,23.37
2018-10-06T09:00:13.970Z,17.23
2018-10-06T09:02:43.252Z,18.07
2018-10-06T09:05:12.529Z,17.67
2018-10-06T09:07:41.665Z,19.17
2018-10-06T09:10:11.783Z,22.43
2018-10-06T09:12:54.635Z,24.50
2018-10-06T09:15:26.217Z,21.60
2018-10-06T09:17:55.460Z,17.00
2018-10-06T09:20:24.561Z,16.77
2018-10-06T09:22:54.120Z,26.03
2018-10-06T09:25:23.263Z,23.17
2018-10-06T09:27:52.457Z,29.37
2018-10-06T09:30:21.744Z,19.07
2018-10-06T09:32:50.881Z,18.17
2018-10-06T09:35:20.102Z,22.00
2018-10-06T09:37:49.301Z,28.80
2018-10-06T09:40:18.486Z,17.60
2018-10-06T09:42:48.852Z,22.30
2018-10-06T09:45:18.137Z,24.80
2018-10-06T09:47:47.328Z,15.80
2018-10-06T09:50:16.462Z,16.67
2018-10-06T09:52:45.636Z,22.37
2018-10-06T09:55:14.819Z,20.70
2018-10-06T09:57:43.988Z,28.53
2018-10-06T10:00:13.289Z,23.73
2018-10-06T10:02:47.729Z,25.80
2018-10-06T10:05:50.574Z,22.53
2018-10-06T10:08:20.090Z,19.20
2018-10-06T10:10:50.153Z,18.47
2018-10-06T10:13:19.858Z,17.03
2018-10-06T10:15:49.166Z,22.67
2018-10-06T10:18:18.664Z,24.73
2018-10-06T10:20:48.007Z,19.37
2018-10-06T10:23:17.206Z,23.63
2018-10-06T10:25:46.396Z,21.63
2018-10-06T10:28:15.712Z,24.33
2018-10-06T10:30:44.866Z,20.10
2018-10-06T10:33:14.121Z,24.70
2018-10-06T10:35:43.387Z,24.73
2018-10-06T10:38:12.658Z,23.13
2018-10-06T10:40:42.009Z,15.80
2018-10-06T10:43:11.633Z,21.40
2018-10-06T10:45:40.845Z,24.43
2018-10-06T10:48:10.381Z,19.90
2018-10-06T10:50:39.564Z,18.87
2018-10-06T10:53:09.042Z,24.83
2018-10-06T10:55:38.378Z,18.00
2018-10-06T10:58:07.622Z,19.23
2018-10-06T11:00:36.844Z,16.77
2018-10-06T11:03:06.124Z,17.87
2018-10-06T11:05:35.480Z,22.63
2018-10-06T11:08:04.841Z,22.77
2018-10-06T11:10:34.354Z,21.23
2018-10-06T11:13:05.643Z,22.20
2018-10-06T11:15:35.033Z,21.97
2018-10-06T11:18:04.434Z,32.10
2018-10-06T11:20:33.865Z,25.07
2018-10-06T11:23:03.242Z,27.17
2018-10-06T11:25:33.366Z,20.17
2018-10-06T11:28:02.868Z,21.60
2018-10-06T11:30:32.166Z,25.40
2018-10-06T11:33:01.581Z,16.20
2018-10-06T11:35:30.946Z,19.13
2018-10-06T11:38:00.402Z,25.03
2018-10-06T11:40:32.908Z,18.80
2018-10-06T11:43:02.217Z,18.70
2018-10-06T11:45:31.567Z,25.93
2018-10-06T11:48:01.059Z,20.17
2018-10-06T11:50:30.413Z,20.10
2018-10-06T11:52:59.961Z,21.90
2018-10-06T11:55:29.373Z,17.67
2018-10-06T11:57:58.641Z,23.50
2018-10-06T12:00:28.185Z,23.20
2018-10-06T12:02:59.034Z,21.07
2018-10-06T12:05:28.375Z,16.77
2018-10-06T12:07:57.722Z,23.80
2018-10-06T12:10:30.847Z,16.90
2018-10-06T12:13:00.136Z,26.87
2018-10-06T12:15:30.013Z,18.13
2018-10-06T12:17:59.691Z,21.57
2018-10-06T12:20:29.118Z,18.07
2018-10-06T12:23:01.785Z,26.27
2018-10-06T12:25:31.726Z,17.27
2018-10-06T12:28:01.544Z,24.63
2018-10-06T12:30:30.917Z,21.43
2018-10-06T12:33:00.261Z,14.07
2018-10-06T12:35:29.754Z,25.80
2018-10-06T12:37:59.470Z,19.90
2018-10-06T12:40:34.154Z,19.03
2018-10-06T12:43:03.627Z,16.30
2018-10-06T12:45:33.820Z,23.40
2018-10-06T12:48:03.325Z,18.57
2018-10-06T12:50:32.897Z,19.07
2018-10-06T12:53:02.337Z,27.80
2018-10-06T12:55:31.600Z,23.77
2018-10-06T12:58:00.938Z,18.77
2018-10-06T13:00:30.243Z,17.87
2018-10-06T13:02:59.628Z,15.67
2018-10-06T13:05:29.184Z,19.50
2018-10-06T13:07:58.512Z,20.17
2018-10-06T13:10:27.962Z,21.33
2018-10-06T13:12:58.101Z,24.80
2018-10-06T13:15:27.464Z,20.77
2018-10-06T13:17:57.295Z,35.90
2018-10-06T13:20:26.530Z,24.57
2018-10-06T13:22:56.061Z,19.80
2018-10-06T13:25:25.449Z,18.73
2018-10-06T13:27:54.717Z,20.13
2018-10-06T13:30:24.050Z,15.60
2018-10-06T13:32:53.670Z,26.73
2018-10-06T13:35:23.026Z,29.17
2018-10-06T13:37:53.281Z,18.67
2018-10-06T13:40:22.694Z,18.37
2018-10-06T13:42:52.434Z,18.53
2018-10-06T13:45:22.372Z,23.20
2018-10-06T13:47:51.605Z,20.77
2018-10-06T13:50:21.141Z,17.67
2018-10-06T13:52:50.430Z,21.60
2018-10-06T13:55:19.719Z,21.70
2018-10-06T13:57:53.584Z,16.47
2018-10-06T14:00:23.145Z,31.20
2018-10-06T14:02:52.502Z,22.73
2018-10-06T14:05:21.793Z,14.97
2018-10-06T14:07:50.559Z,23.90
2018-10-06T14:10:19.925Z,23.80
2018-10-06T14:12:50.003Z,18.00
2018-10-06T14:15:19.374Z,19.40
2018-10-06T14:17:48.861Z,19.33
2018-10-06T14:20:18.070Z,21.60
2018-10-06T14:22:47.417Z,16.30
2018-10-06T14:25:16.737Z,15.80
2018-10-06T14:27:46.096Z,26.50
2018-10-06T14:30:15.594Z,20.30
2018-10-06T14:32:45.196Z,26.20
2018-10-06T14:35:14.845Z,22.30
2018-10-06T14:37:44.341Z,21.93
2018-10-06T14:40:13.671Z,21.03
2018-10-06T14:42:43.042Z,23.40
2018-10-06T14:45:12.515Z,21.17
2018-10-06T14:47:42.027Z,27.70
2018-10-06T14:50:11.377Z,23.50
2018-10-06T14:52:40.766Z,18.23
2018-10-06T14:55:10.100Z,27.27
2018-10-06T14:57:39.642Z,21.40
2018-10-06T15:00:09.360Z,25.63
2018-10-06T15:02:38.564Z,27.00
2018-10-06T15:05:07.967Z,28.23
2018-10-06T15:07:37.452Z,23.13
2018-10-06T15:10:06.650Z,24.23
2018-10-06T15:12:35.930Z,23.60
2018-10-06T15:15:05.287Z,25.23
2018-10-06T15:17:34.518Z,22.03
2018-10-06T15:20:03.739Z,29.03
2018-10-06T15:22:32.909Z,37.90
2018-10-06T15:25:02.152Z,27.27
2018-10-06T15:27:31.354Z,22.50
2018-10-06T15:30:00.512Z,28.80
2018-10-06T15:32:29.729Z,21.17
2018-10-06T15:34:58.914Z,20.37
2018-10-06T15:37:28.127Z,26.83
2018-10-06T15:39:57.340Z,34.33
2018-10-06T15:42:26.527Z,33.23
2018-10-06T15:44:55.773Z,32.03
2018-10-06T15:47:25.042Z,26.40
2018-10-06T15:49:54.250Z,37.07
2018-10-06T15:52:23.466Z,37.10
2018-10-06T15:54:52.660Z,29.37
2018-10-06T15:57:21.839Z,25.80
2018-10-06T15:59:51.030Z,26.70
2018-10-06T16:02:20.202Z,28.30
2018-10-06T16:04:49.381Z,32.10
2018-10-06T16:07:18.564Z,32.50
2018-10-06T16:09:47.785Z,35.70
2018-10-06T16:12:16.989Z,32.03
2018-10-06T16:14:46.146Z,30.50
2018-10-06T16:17:15.280Z,27.00
2018-10-06T16:19:44.453Z,33.93
2018-10-06T16:22:13.695Z,31.33
2018-10-06T16:24:42.823Z,37.83
2018-10-06T16:27:11.999Z,46.53
2018-10-06T16:29:41.249Z,30.90
2018-10-06T16:32:10.467Z,33.97
2018-10-06T16:34:39.637Z,35.17
2018-10-06T16:37:08.922Z,31.50
2018-10-06T16:39:39.677Z,37.13
2018-10-06T16:42:08.848Z,43.03
2018-10-06T16:44:38.064Z,40.40
2018-10-06T16:47:07.347Z,37.20
2018-10-06T16:49:36.514Z,30.37
2018-10-06T16:52:05.780Z,33.57
2018-10-06T16:54:35.082Z,43.33
2018-10-06T16:57:04.361Z,32.30
2018-10-06T16:59:34.544Z,46.63
2018-10-06T17:02:03.914Z,41.50
2018-10-06T17:04:32.967Z,29.50
2018-10-06T17:07:02.171Z,36.40
2018-10-06T17:09:31.411Z,36.73
2018-10-06T17:12:00.562Z,38.17
2018-10-06T17:14:29.744Z,44.20
2018-10-06T17:16:58.908Z,39.03
2018-10-06T17:19:28.105Z,40.50
2018-10-06T17:21:57.319Z,51.10
2018-10-06T17:24:26.555Z,51.13
2018-10-06T17:26:55.712Z,62.27
2018-10-06T17:29:24.907Z,71.83
2018-10-06T17:31:54.655Z,62.50
2018-10-06T17:34:23.809Z,54.23
2018-10-06T17:36:53.057Z,47.30
2018-10-06T17:39:22.466Z,46.20
2018-10-06T17:41:52.390Z,45.60
2018-10-06T17:44:21.699Z,49.63
2018-10-06T17:46:50.889Z,66.23
2018-10-06T17:49:20.038Z,45.23
2018-10-06T17:51:49.236Z,42.50
2018-10-06T17:54:18.382Z,36.70
2018-10-06T17:56:47.543Z,41.97
2018-10-06T17:59:16.704Z,43.40
2018-10-06T18:01:45.860Z,42.30
2018-10-06T18:04:15.195Z,38.37
2018-10-06T18:06:44.360Z,46.50
2018-10-06T18:09:13.561Z,44.67
2018-10-06T18:11:42.733Z,44.53
2018-10-06T18:14:11.949Z,48.00
2018-10-06T18:16:41.111Z,40.87
2018-10-06T18:19:10.697Z,46.60
2018-10-06T18:21:39.896Z,43.63
2018-10-06T18:24:09.037Z,50.70
2018-10-06T18:26:38.429Z,46.97
2018-10-06T18:29:07.906Z,43.80
2018-10-06T18:31:36.993Z,48.87
2018-10-06T18:34:06.147Z,62.10
2018-10-06T18:36:35.662Z,56.00
2018-10-06T18:39:06.160Z,51.73
2018-10-06T18:41:35.390Z,59.73
2018-10-06T18:44:06.149Z,62.43
2018-10-06T18:46:35.585Z,56.37
2018-10-06T18:49:04.802Z,57.20
2018-10-06T18:51:34.226Z,63.87
2018-10-06T18:54:03.378Z,56.43
2018-10-06T18:56:32.536Z,61.60
2018-10-06T18:59:01.715Z,57.60
2018-10-06T19:01:30.846Z,68.27
2018-10-06T19:04:00.067Z,64.13
2018-10-06T19:06:29.202Z,67.80
2018-10-06T19:08:58.361Z,81.23
2018-10-06T19:11:27.527Z,91.63
2018-10-06T19:13:56.750Z,72.17
2018-10-06T19:16:26.026Z,85.77
2018-10-06T19:18:55.131Z,61.40
2018-10-06T19:21:24.293Z,82.57
2018-10-06T19:23:53.473Z,70.57
2018-10-06T19:26:22.665Z,72.53
2018-10-06T19:28:51.844Z,64.60
2018-10-06T19:31:21.122Z,69.40
2018-10-06T19:33:50.294Z,74.67
2018-10-06T19:36:19.487Z,68.47
2018-10-06T19:38:48.673Z,69.03
2018-10-06T19:41:17.842Z,75.33
2018-10-06T19:43:47.481Z,74.80
2018-10-06T19:46:16.712Z,72.40
2018-10-06T19:48:45.905Z,75.90
2018-10-06T19:51:15.117Z,76.37
2018-10-06T19:53:44.333Z,68.73
2018-10-06T19:56:13.502Z,69.33
2018-10-06T19:58:42.679Z,70.90
2018-10-06T20:01:11.831Z,93.00
2018-10-06T20:03:41.004Z,99.27
2018-10-06T20:06:10.190Z,86.27
2018-10-06T20:08:39.370Z,77.80
2018-10-06T20:11:09.402Z,85.33
2018-10-06T20:13:38.582Z,88.73
2018-10-06T20:16:08.165Z,89.90
2018-10-06T20:18:37.349Z,75.53
2018-10-06T20:21:06.769Z,77.73
2018-10-06T20:23:35.918Z,80.23
2018-10-06T20:26:05.934Z,69.00
2018-10-06T20:28:35.105Z,64.83
2018-10-06T20:31:04.303Z,62.13
2018-10-06T20:33:33.488Z,68.67
2018-10-06T20:36:02.633Z,63.70
2018-10-06T20:38:31.908Z,63.10
2018-10-06T20:41:01.061Z,68.93
2018-10-06T20:43:30.862Z,60.43
2018-10-06T20:46:00.045Z,61.30
2018-10-06T20:48:29.205Z,58.20
2018-10-06T20:50:58.417Z,65.37
2018-10-06T20:53:27.703Z,68.13
2018-10-06T20:55:56.807Z,68.40
2018-10-06T20:58:26.226Z,68.80
2018-10-06T21:00:55.394Z,66.20
2018-10-06T21:03:24.552Z,59.60
2018-10-06T21:05:53.745Z,65.20
2018-10-06T21:08:22.901Z,61.93
2018-10-06T21:10:52.142Z,57.40
2018-10-06T21:13:21.256Z,55.23
2018-10-06T21:15:50.608Z,50.73
2018-10-06T21:18:19.814Z,65.07
2018-10-06T21:20:48.998Z,58.13
2018-10-06T21:23:18.250Z,62.40
2018-10-06T21:25:47.477Z,56.93
2018-10-06T21:28:16.680Z,56.77
2018-10-06T21:30:45.973Z,59.23
2018-10-06T21:33:15.234Z,46.47
2018-10-06T21:35:44.454Z,62.80
2018-10-06T21:38:13.622Z,57.47
2018-10-06T21:40:42.895Z,48.80
2018-10-06T21:43:12.101Z,55.53
2018-10-06T21:45:41.432Z,55.87
2018-10-06T21:48:10.580Z,54.63
2018-10-06T21:50:40.003Z,54.53
2018-10-06T21:53:09.316Z,55.33
2018-10-06T21:55:38.509Z,51.97
2018-10-06T21:58:07.806Z,57.90
2018-10-06T22:00:37.036Z,58.13
2018-10-06T22:03:06.342Z,50.90
2018-10-06T22:05:35.533Z,45.40
2018-10-06T22:08:04.701Z,49.07
2018-10-06T22:10:33.841Z,54.50
2018-10-06T22:13:03.009Z,54.03
2018-10-06T22:15:32.164Z,61.00
2018-10-06T22:18:01.475Z,54.33
2018-10-06T22:20:30.656Z,50.80
2018-10-06T22:22:59.904Z,52.90
2018-10-06T22:25:29.115Z,55.57
2018-10-06T22:27:58.351Z,56.30
2018-10-06T22:30:27.541Z,60.83
2018-10-06T22:32:56.781Z,50.97
2018-10-06T22:35:29.013Z,52.17
2018-10-06T22:37:58.248Z,60.17
2018-10-06T22:40:27.417Z,52.37
2018-10-06T22:42:56.590Z,55.60
2018-10-06T22:45:25.733Z,55.93
2018-10-06T22:47:54.958Z,59.20
2018-10-06T22:50:24.162Z,52.90
2018-10-06T22:52:53.405Z,61.80
2018-10-06T22:55:22.545Z,53.20
2018-10-06T22:57:51.786Z,59.60
2018-10-06T23:00:21.034Z,48.50
2018-10-06T23:02:50.264Z,48.70
2018-10-06T23:05:19.529Z,46.40
2018-10-06T23:07:48.785Z,70.20
2018-10-06T23:10:17.969Z,50.27
2018-10-06T23:12:47.197Z,49.67
2018-10-06T23:15:16.402Z,63.17
2018-10-06T23:17:45.631Z,53.00
2018-10-06T23:20:14.867Z,44.83
2018-10-06T23:22:44.076Z,52.57
2018-10-06T23:25:13.271Z,56.00
2018-10-06T23:27:42.477Z,52.87
2018-10-06T23:30:11.669Z,45.30
2018-10-06T23:32:41.063Z,42.87
2018-10-06T23:35:10.271Z,58.53
2018-10-06T23:37:39.424Z,52.43
2018-10-06T23:40:08.688Z,47.27
2018-10-06T23:42:37.968Z,45.77
2018-10-06T23:45:07.402Z,50.97
2018-10-06T23:47:36.755Z,47.17
2018-10-06T23:50:06.194Z,58.43
2018-10-06T23:52:35.683Z,50.33
2018-10-06T23:55:04.960Z,46.43
2018-10-06T23:57:34.203Z,50.43
